sensor_id;sensor_type;location;lat;lon;timestamp;temperature;humidity
66312;HTU21D;53114;51.138;6.008;2023-09-19T00:02:03;16.91;110.87
66312;HTU21D;53114;51.138;6.008;2023-09-19T00:04:32;16.90;111.11
66312;HTU21D;53114;51.138;6.008;2023-09-19T00:06:59;16.89;111.29
66312;HTU21D;53114;51.138;6.008;2023-09-19T00:09:25;16.82;111.63
66312;HTU21D;53114;51.138;6.008;2023-09-19T00:11:53;16.82;111.75
66312;HTU21D;53114;51.138;6.008;2023-09-19T00:14:19;16.82;111.91
66312;HTU21D;53114;51.138;6.008;2023-09-19T00:16:45;16.81;111.88
66312;HTU21D;53114;51.138;6.008;2023-09-19T00:19:12;16.81;111.53
66312;HTU21D;53114;51.138;6.008;2023-09-19T00:21:39;16.80;111.45
66312;HTU21D;53114;51.138;6.008;2023-09-19T00:24:07;16.79;111.47
66312;HTU21D;53114;51.138;6.008;2023-09-19T00:26:34;16.79;111.24
66312;HTU21D;53114;51.138;6.008;2023-09-19T00:29:00;16.76;111.26
66312;HTU21D;53114;51.138;6.008;2023-09-19T00:31:29;16.74;111.48
66312;HTU21D;53114;51.138;6.008;2023-09-19T00:33:55;16.72;111.79
66312;HTU21D;53114;51.138;6.008;2023-09-19T00:36:25;16.71;111.90
66312;HTU21D;53114;51.138;6.008;2023-09-19T00:38:51;16.71;111.78
66312;HTU21D;53114;51.138;6.008;2023-09-19T00:41:17;16.69;112.12
66312;HTU21D;53114;51.138;6.008;2023-09-19T00:43:43;16.65;112.30
66312;HTU21D;53114;51.138;6.008;2023-09-19T00:46:09;16.62;112.45
66312;HTU21D;53114;51.138;6.008;2023-09-19T00:48:42;16.61;112.74
66312;HTU21D;53114;51.138;6.008;2023-09-19T00:51:10;16.60;112.91
66312;HTU21D;53114;51.138;6.008;2023-09-19T00:53:38;16.58;113.03
66312;HTU21D;53114;51.138;6.008;2023-09-19T00:56:05;16.57;113.35
66312;HTU21D;53114;51.138;6.008;2023-09-19T00:58:33;16.57;113.26
66312;HTU21D;53114;51.138;6.008;2023-09-19T01:01:02;16.55;113.51
66312;HTU21D;53114;51.138;6.008;2023-09-19T01:03:33;16.57;113.67
66312;HTU21D;53114;51.138;6.008;2023-09-19T01:06:00;16.54;113.64
66312;HTU21D;53114;51.138;6.008;2023-09-19T01:08:29;16.54;114.12
66312;HTU21D;53114;51.138;6.008;2023-09-19T01:11:00;16.54;114.31
66312;HTU21D;53114;51.138;6.008;2023-09-19T01:13:47;16.55;114.76
66312;HTU21D;53114;51.138;6.008;2023-09-19T01:16:31;16.56;114.62
66312;HTU21D;53114;51.138;6.008;2023-09-19T01:19:12;16.55;114.64
66312;HTU21D;53114;51.138;6.008;2023-09-19T01:27:30;16.56;114.69
66312;HTU21D;53114;51.138;6.008;2023-09-19T01:30:10;16.55;114.49
66312;HTU21D;53114;51.138;6.008;2023-09-19T01:32:38;16.54;114.41
66312;HTU21D;53114;51.138;6.008;2023-09-19T01:35:04;16.51;114.21
66312;HTU21D;53114;51.138;6.008;2023-09-19T01:37:31;16.48;113.71
66312;HTU21D;53114;51.138;6.008;2023-09-19T01:40:09;16.48;112.55
66312;HTU21D;53114;51.138;6.008;2023-09-19T01:43:10;16.47;111.93
66312;HTU21D;53114;51.138;6.008;2023-09-19T01:48:49;16.45;110.34
66312;HTU21D;53114;51.138;6.008;2023-09-19T01:51:33;16.45;109.80
66312;HTU21D;53114;51.138;6.008;2023-09-19T01:54:09;16.44;109.58
66312;HTU21D;53114;51.138;6.008;2023-09-19T01:57:14;16.45;109.17
66312;HTU21D;53114;51.138;6.008;2023-09-19T01:59:48;16.44;108.95
66312;HTU21D;53114;51.138;6.008;2023-09-19T02:02:17;16.42;108.81
66312;HTU21D;53114;51.138;6.008;2023-09-19T02:04:43;16.43;109.35
66312;HTU21D;53114;51.138;6.008;2023-09-19T02:07:10;16.44;109.86
66312;HTU21D;53114;51.138;6.008;2023-09-19T02:09:36;16.39;109.95
66312;HTU21D;53114;51.138;6.008;2023-09-19T02:12:05;16.40;110.12
66312;HTU21D;53114;51.138;6.008;2023-09-19T02:14:31;16.36;110.28
66312;HTU21D;53114;51.138;6.008;2023-09-19T02:16:57;16.35;110.74
66312;HTU21D;53114;51.138;6.008;2023-09-19T02:19:24;16.36;111.26
66312;HTU21D;53114;51.138;6.008;2023-09-19T02:21:50;16.34;111.77
66312;HTU21D;53114;51.138;6.008;2023-09-19T02:24:16;16.32;112.06
66312;HTU21D;53114;51.138;6.008;2023-09-19T02:26:42;16.31;111.65
66312;HTU21D;53114;51.138;6.008;2023-09-19T02:29:08;16.30;111.55
66312;HTU21D;53114;51.138;6.008;2023-09-19T02:31:38;16.31;111.42
66312;HTU21D;53114;51.138;6.008;2023-09-19T02:34:04;16.31;111.34
66312;HTU21D;53114;51.138;6.008;2023-09-19T02:36:32;16.29;111.49
66312;HTU21D;53114;51.138;6.008;2023-09-19T02:38:58;16.30;111.81
66312;HTU21D;53114;51.138;6.008;2023-09-19T02:41:24;16.31;112.58
66312;HTU21D;53114;51.138;6.008;2023-09-19T02:43:50;16.29;113.00
66312;HTU21D;53114;51.138;6.008;2023-09-19T02:46:16;16.29;113.20
66312;HTU21D;53114;51.138;6.008;2023-09-19T02:48:42;16.27;113.26
66312;HTU21D;53114;51.138;6.008;2023-09-19T02:51:08;16.22;113.45
66312;HTU21D;53114;51.138;6.008;2023-09-19T02:53:34;16.21;114.09
66312;HTU21D;53114;51.138;6.008;2023-09-19T02:56:01;16.19;114.30
66312;HTU21D;53114;51.138;6.008;2023-09-19T02:58:29;16.18;114.75
66312;HTU21D;53114;51.138;6.008;2023-09-19T03:00:56;16.18;115.45
66312;HTU21D;53114;51.138;6.008;2023-09-19T03:03:23;16.16;115.67
66312;HTU21D;53114;51.138;6.008;2023-09-19T03:05:49;16.15;115.85
66312;HTU21D;53114;51.138;6.008;2023-09-19T03:08:17;16.13;116.19
66312;HTU21D;53114;51.138;6.008;2023-09-19T03:10:46;16.15;116.35
66312;HTU21D;53114;51.138;6.008;2023-09-19T03:13:12;16.15;116.53
66312;HTU21D;53114;51.138;6.008;2023-09-19T03:15:41;16.16;116.34
66312;HTU21D;53114;51.138;6.008;2023-09-19T03:18:10;16.17;115.93
66312;HTU21D;53114;51.138;6.008;2023-09-19T03:20:36;16.15;115.39
66312;HTU21D;53114;51.138;6.008;2023-09-19T03:23:02;16.16;115.13
66312;HTU21D;53114;51.138;6.008;2023-09-19T03:25:29;16.14;115.10
66312;HTU21D;53114;51.138;6.008;2023-09-19T03:27:56;16.15;115.22
66312;HTU21D;53114;51.138;6.008;2023-09-19T03:30:24;16.13;114.80
66312;HTU21D;53114;51.138;6.008;2023-09-19T03:32:50;16.15;114.90
66312;HTU21D;53114;51.138;6.008;2023-09-19T03:35:17;16.14;114.58
66312;HTU21D;53114;51.138;6.008;2023-09-19T03:37:44;16.14;114.68
66312;HTU21D;53114;51.138;6.008;2023-09-19T03:40:11;16.14;114.85
66312;HTU21D;53114;51.138;6.008;2023-09-19T03:42:41;16.13;114.51
66312;HTU21D;53114;51.138;6.008;2023-09-19T03:45:10;16.13;114.57
66312;HTU21D;53114;51.138;6.008;2023-09-19T03:47:46;16.13;114.92
66312;HTU21D;53114;51.138;6.008;2023-09-19T03:50:17;16.12;114.96
66312;HTU21D;53114;51.138;6.008;2023-09-19T03:52:44;16.12;114.87
66312;HTU21D;53114;51.138;6.008;2023-09-19T03:55:10;16.13;114.78
66312;HTU21D;53114;51.138;6.008;2023-09-19T03:57:38;16.13;114.45
66312;HTU21D;53114;51.138;6.008;2023-09-19T04:00:04;16.14;114.48
66312;HTU21D;53114;51.138;6.008;2023-09-19T04:02:39;16.13;114.56
66312;HTU21D;53114;51.138;6.008;2023-09-19T04:05:06;16.11;115.09
66312;HTU21D;53114;51.138;6.008;2023-09-19T04:07:31;16.07;115.69
66312;HTU21D;53114;51.138;6.008;2023-09-19T04:09:57;16.11;115.51
66312;HTU21D;53114;51.138;6.008;2023-09-19T04:12:23;16.11;115.57
66312;HTU21D;53114;51.138;6.008;2023-09-19T04:14:49;16.12;114.99
66312;HTU21D;53114;51.138;6.008;2023-09-19T04:17:16;16.13;114.52
66312;HTU21D;53114;51.138;6.008;2023-09-19T04:19:42;16.16;114.29
66312;HTU21D;53114;51.138;6.008;2023-09-19T04:22:08;16.16;113.77
66312;HTU21D;53114;51.138;6.008;2023-09-19T04:24:35;16.16;113.23
66312;HTU21D;53114;51.138;6.008;2023-09-19T04:27:00;16.18;112.13
66312;HTU21D;53114;51.138;6.008;2023-09-19T04:29:27;16.22;111.39
66312;HTU21D;53114;51.138;6.008;2023-09-19T04:31:55;16.25;110.42
66312;HTU21D;53114;51.138;6.008;2023-09-19T04:34:22;16.25;108.91
66312;HTU21D;53114;51.138;6.008;2023-09-19T04:36:49;16.24;107.81
66312;HTU21D;53114;51.138;6.008;2023-09-19T04:39:15;16.27;107.32
66312;HTU21D;53114;51.138;6.008;2023-09-19T04:41:42;16.27;106.24
66312;HTU21D;53114;51.138;6.008;2023-09-19T04:44:08;16.25;106.12
66312;HTU21D;53114;51.138;6.008;2023-09-19T04:46:35;16.27;105.46
66312;HTU21D;53114;51.138;6.008;2023-09-19T04:49:01;16.29;104.65
66312;HTU21D;53114;51.138;6.008;2023-09-19T04:51:27;16.28;104.07
66312;HTU21D;53114;51.138;6.008;2023-09-19T04:53:58;16.30;102.89
66312;HTU21D;53114;51.138;6.008;2023-09-19T04:56:24;16.33;102.19
66312;HTU21D;53114;51.138;6.008;2023-09-19T04:58:50;16.32;101.60
66312;HTU21D;53114;51.138;6.008;2023-09-19T05:01:16;16.34;100.93
66312;HTU21D;53114;51.138;6.008;2023-09-19T05:03:42;16.34;100.86
66312;HTU21D;53114;51.138;6.008;2023-09-19T05:06:08;16.34;100.06
66312;HTU21D;53114;51.138;6.008;2023-09-19T05:08:33;16.34;99.83
66312;HTU21D;53114;51.138;6.008;2023-09-19T05:11:01;16.33;100.01
66312;HTU21D;53114;51.138;6.008;2023-09-19T05:13:27;16.29;100.34
66312;HTU21D;53114;51.138;6.008;2023-09-19T05:15:53;16.30;100.13
66312;HTU21D;53114;51.138;6.008;2023-09-19T05:18:19;16.29;100.24
66312;HTU21D;53114;51.138;6.008;2023-09-19T05:20:45;16.27;100.37
66312;HTU21D;53114;51.138;6.008;2023-09-19T05:23:11;16.32;100.06
66312;HTU21D;53114;51.138;6.008;2023-09-19T05:25:39;16.36;99.96
66312;HTU21D;53114;51.138;6.008;2023-09-19T05:28:07;16.40;100.22
66312;HTU21D;53114;51.138;6.008;2023-09-19T05:30:33;16.37;99.59
66312;HTU21D;53114;51.138;6.008;2023-09-19T05:32:59;16.42;100.75
66312;HTU21D;53114;51.138;6.008;2023-09-19T05:35:25;16.44;100.91
66312;HTU21D;53114;51.138;6.008;2023-09-19T05:37:52;16.47;100.89
66312;HTU21D;53114;51.138;6.008;2023-09-19T05:40:18;16.48;100.82
66312;HTU21D;53114;51.138;6.008;2023-09-19T05:42:45;16.49;101.22
66312;HTU21D;53114;51.138;6.008;2023-09-19T05:45:11;16.47;101.43
66312;HTU21D;53114;51.138;6.008;2023-09-19T05:47:44;16.48;101.60
66312;HTU21D;53114;51.138;6.008;2023-09-19T05:50:12;16.49;102.52
66312;HTU21D;53114;51.138;6.008;2023-09-19T05:52:38;16.49;102.73
66312;HTU21D;53114;51.138;6.008;2023-09-19T05:55:05;16.51;102.71
66312;HTU21D;53114;51.138;6.008;2023-09-19T05:57:33;16.50;103.20
66312;HTU21D;53114;51.138;6.008;2023-09-19T06:00:00;16.51;103.27
66312;HTU21D;53114;51.138;6.008;2023-09-19T06:02:26;16.50;103.54
66312;HTU21D;53114;51.138;6.008;2023-09-19T06:04:54;16.46;103.92
66312;HTU21D;53114;51.138;6.008;2023-09-19T06:07:22;16.42;105.11
66312;HTU21D;53114;51.138;6.008;2023-09-19T06:09:49;16.42;105.63
66312;HTU21D;53114;51.138;6.008;2023-09-19T06:12:14;16.41;106.13
66312;HTU21D;53114;51.138;6.008;2023-09-19T06:14:43;16.41;106.36
66312;HTU21D;53114;51.138;6.008;2023-09-19T06:17:09;16.43;106.41
66312;HTU21D;53114;51.138;6.008;2023-09-19T06:19:34;16.44;106.72
66312;HTU21D;53114;51.138;6.008;2023-09-19T06:22:00;16.47;106.66
66312;HTU21D;53114;51.138;6.008;2023-09-19T06:24:26;16.48;106.64
66312;HTU21D;53114;51.138;6.008;2023-09-19T06:26:52;16.50;107.00
66312;HTU21D;53114;51.138;6.008;2023-09-19T06:29:18;16.51;106.75
66312;HTU21D;53114;51.138;6.008;2023-09-19T06:31:46;16.55;106.32
66312;HTU21D;53114;51.138;6.008;2023-09-19T06:34:12;16.59;105.98
66312;HTU21D;53114;51.138;6.008;2023-09-19T06:36:41;16.62;105.69
66312;HTU21D;53114;51.138;6.008;2023-09-19T06:39:07;16.63;105.15
66312;HTU21D;53114;51.138;6.008;2023-09-19T06:41:37;16.64;104.71
66312;HTU21D;53114;51.138;6.008;2023-09-19T06:44:10;16.64;105.16
66312;HTU21D;53114;51.138;6.008;2023-09-19T06:46:35;16.69;105.38
66312;HTU21D;53114;51.138;6.008;2023-09-19T06:49:05;16.72;105.50
66312;HTU21D;53114;51.138;6.008;2023-09-19T06:51:32;16.70;104.92
66312;HTU21D;53114;51.138;6.008;2023-09-19T06:54:01;16.73;105.05
66312;HTU21D;53114;51.138;6.008;2023-09-19T06:56:27;16.72;104.86
66312;HTU21D;53114;51.138;6.008;2023-09-19T06:58:53;16.76;104.26
66312;HTU21D;53114;51.138;6.008;2023-09-19T07:01:19;16.80;104.04
66312;HTU21D;53114;51.138;6.008;2023-09-19T07:03:45;16.85;103.76
66312;HTU21D;53114;51.138;6.008;2023-09-19T07:06:11;16.89;103.14
66312;HTU21D;53114;51.138;6.008;2023-09-19T07:08:37;16.96;101.84
66312;HTU21D;53114;51.138;6.008;2023-09-19T07:11:04;17.01;101.41
66312;HTU21D;53114;51.138;6.008;2023-09-19T07:13:31;17.08;101.05
66312;HTU21D;53114;51.138;6.008;2023-09-19T07:16:01;17.16;100.69
66312;HTU21D;53114;51.138;6.008;2023-09-19T07:18:27;17.23;99.44
66312;HTU21D;53114;51.138;6.008;2023-09-19T07:20:57;17.25;98.99
66312;HTU21D;53114;51.138;6.008;2023-09-19T07:23:27;17.32;98.61
66312;HTU21D;53114;51.138;6.008;2023-09-19T07:25:56;17.41;97.98
66312;HTU21D;53114;51.138;6.008;2023-09-19T07:28:23;17.47;97.77
66312;HTU21D;53114;51.138;6.008;2023-09-19T07:30:48;17.53;96.56
66312;HTU21D;53114;51.138;6.008;2023-09-19T07:33:14;17.56;96.07
66312;HTU21D;53114;51.138;6.008;2023-09-19T07:35:44;17.62;95.64
66312;HTU21D;53114;51.138;6.008;2023-09-19T07:38:11;17.69;95.39
66312;HTU21D;53114;51.138;6.008;2023-09-19T07:40:37;17.75;94.56
66312;HTU21D;53114;51.138;6.008;2023-09-19T07:43:03;17.79;93.28
66312;HTU21D;53114;51.138;6.008;2023-09-19T07:45:33;17.83;93.20
66312;HTU21D;53114;51.138;6.008;2023-09-19T07:47:59;17.87;92.66
66312;HTU21D;53114;51.138;6.008;2023-09-19T07:50:30;17.96;92.18
66312;HTU21D;53114;51.138;6.008;2023-09-19T07:52:56;18.02;91.10
66312;HTU21D;53114;51.138;6.008;2023-09-19T07:55:22;18.03;90.96
66312;HTU21D;53114;51.138;6.008;2023-09-19T07:57:52;18.07;90.56
66312;HTU21D;53114;51.138;6.008;2023-09-19T08:00:18;18.13;89.50
66312;HTU21D;53114;51.138;6.008;2023-09-19T08:02:45;18.17;89.18
66312;HTU21D;53114;51.138;6.008;2023-09-19T08:05:12;18.22;88.73
66312;HTU21D;53114;51.138;6.008;2023-09-19T08:07:43;18.25;88.62
66312;HTU21D;53114;51.138;6.008;2023-09-19T08:10:09;18.35;88.37
66312;HTU21D;53114;51.138;6.008;2023-09-19T08:12:39;18.40;86.69
66312;HTU21D;53114;51.138;6.008;2023-09-19T08:15:17;18.49;86.68
66312;HTU21D;53114;51.138;6.008;2023-09-19T08:17:43;18.59;84.41
66312;HTU21D;53114;51.138;6.008;2023-09-19T08:20:10;18.71;84.93
66312;HTU21D;53114;51.138;6.008;2023-09-19T08:22:43;18.80;83.55
66312;HTU21D;53114;51.138;6.008;2023-09-19T08:25:12;18.88;82.88
66312;HTU21D;53114;51.138;6.008;2023-09-19T08:27:37;18.95;81.91
66312;HTU21D;53114;51.138;6.008;2023-09-19T08:30:04;19.08;81.12
66312;HTU21D;53114;51.138;6.008;2023-09-19T08:32:30;19.13;79.80
66312;HTU21D;53114;51.138;6.008;2023-09-19T08:34:56;19.23;80.00
66312;HTU21D;53114;51.138;6.008;2023-09-19T08:37:21;19.52;79.16
66312;HTU21D;53114;51.138;6.008;2023-09-19T08:39:47;19.80;75.77
66312;HTU21D;53114;51.138;6.008;2023-09-19T08:42:13;20.09;73.66
66312;HTU21D;53114;51.138;6.008;2023-09-19T08:44:40;20.46;70.97
66312;HTU21D;53114;51.138;6.008;2023-09-19T08:47:10;20.77;69.40
66312;HTU21D;53114;51.138;6.008;2023-09-19T08:52:42;21.38;65.96
66312;HTU21D;53114;51.138;6.008;2023-09-19T08:55:13;21.51;64.15
66312;HTU21D;53114;51.138;6.008;2023-09-19T08:57:46;21.40;63.24
66312;HTU21D;53114;51.138;6.008;2023-09-19T09:00:15;21.32;63.90
66312;HTU21D;53114;51.138;6.008;2023-09-19T09:02:44;21.44;63.05
66312;HTU21D;53114;51.138;6.008;2023-09-19T09:05:13;21.59;62.85
66312;HTU21D;53114;51.138;6.008;2023-09-19T09:07:42;21.78;62.57
66312;HTU21D;53114;51.138;6.008;2023-09-19T09:10:08;21.74;61.99
66312;HTU21D;53114;51.138;6.008;2023-09-19T09:12:35;21.63;62.70
66312;HTU21D;53114;51.138;6.008;2023-09-19T09:15:03;21.49;62.76
66312;HTU21D;53114;51.138;6.008;2023-09-19T09:17:30;21.37;63.08
66312;HTU21D;53114;51.138;6.008;2023-09-19T09:19:56;21.27;63.48
66312;HTU21D;53114;51.138;6.008;2023-09-19T09:22:22;21.18;63.67
66312;HTU21D;53114;51.138;6.008;2023-09-19T09:24:58;21.00;63.68
66312;HTU21D;53114;51.138;6.008;2023-09-19T09:27:24;20.86;64.83
66312;HTU21D;53114;51.138;6.008;2023-09-19T09:29:52;20.89;65.12
66312;HTU21D;53114;51.138;6.008;2023-09-19T09:32:25;20.92;63.35
66312;HTU21D;53114;51.138;6.008;2023-09-19T09:34:56;21.06;64.23
66312;HTU21D;53114;51.138;6.008;2023-09-19T09:37:24;21.14;63.73
66312;HTU21D;53114;51.138;6.008;2023-09-19T09:39:57;21.29;63.22
66312;HTU21D;53114;51.138;6.008;2023-09-19T09:42:35;21.39;62.78
66312;HTU21D;53114;51.138;6.008;2023-09-19T09:45:19;21.47;62.66
66312;HTU21D;53114;51.138;6.008;2023-09-19T09:48:03;21.70;61.94
66312;HTU21D;53114;51.138;6.008;2023-09-19T09:50:34;21.77;61.43
66312;HTU21D;53114;51.138;6.008;2023-09-19T09:53:30;21.63;60.35
66312;HTU21D;53114;51.138;6.008;2023-09-19T09:56:04;21.23;61.30
66312;HTU21D;53114;51.138;6.008;2023-09-19T09:58:35;20.87;62.60
66312;HTU21D;53114;51.138;6.008;2023-09-19T10:01:05;20.69;63.44
66312;HTU21D;53114;51.138;6.008;2023-09-19T10:03:42;20.60;64.37
66312;HTU21D;53114;51.138;6.008;2023-09-19T10:06:15;20.63;64.72
66312;HTU21D;53114;51.138;6.008;2023-09-19T10:09:09;20.76;65.12
66312;HTU21D;53114;51.138;6.008;2023-09-19T10:11:47;20.92;64.52
66312;HTU21D;53114;51.138;6.008;2023-09-19T10:14:20;21.06;64.06
66312;HTU21D;53114;51.138;6.008;2023-09-19T10:16:49;21.06;62.78
66312;HTU21D;53114;51.138;6.008;2023-09-19T10:19:30;21.04;62.04
66312;HTU21D;53114;51.138;6.008;2023-09-19T10:22:02;21.03;62.00
66312;HTU21D;53114;51.138;6.008;2023-09-19T10:24:33;20.91;61.51
66312;HTU21D;53114;51.138;6.008;2023-09-19T10:27:00;20.80;61.90
66312;HTU21D;53114;51.138;6.008;2023-09-19T10:29:29;20.71;61.58
66312;HTU21D;53114;51.138;6.008;2023-09-19T10:31:59;20.75;62.13
66312;HTU21D;53114;51.138;6.008;2023-09-19T10:34:27;20.88;62.49
66312;HTU21D;53114;51.138;6.008;2023-09-19T10:36:56;21.06;62.47
66312;HTU21D;53114;51.138;6.008;2023-09-19T10:39:25;21.27;62.17
66312;HTU21D;53114;51.138;6.008;2023-09-19T10:41:54;21.44;61.72
66312;HTU21D;53114;51.138;6.008;2023-09-19T10:44:25;21.73;60.65
66312;HTU21D;53114;51.138;6.008;2023-09-19T10:46:54;21.99;59.12
66312;HTU21D;53114;51.138;6.008;2023-09-19T10:49:21;22.06;57.87
66312;HTU21D;53114;51.138;6.008;2023-09-19T10:51:55;22.01;58.34
66312;HTU21D;53114;51.138;6.008;2023-09-19T10:54:32;21.92;58.14
66312;HTU21D;53114;51.138;6.008;2023-09-19T10:57:03;21.89;58.54
66312;HTU21D;53114;51.138;6.008;2023-09-19T10:59:31;21.99;58.03
66312;HTU21D;53114;51.138;6.008;2023-09-19T11:02:16;22.29;58.32
66312;HTU21D;53114;51.138;6.008;2023-09-19T11:04:43;22.47;57.26
66312;HTU21D;53114;51.138;6.008;2023-09-19T11:07:15;22.60;55.84
66312;HTU21D;53114;51.138;6.008;2023-09-19T11:09:51;22.55;55.87
66312;HTU21D;53114;51.138;6.008;2023-09-19T11:14:52;22.53;56.41
66312;HTU21D;53114;51.138;6.008;2023-09-19T11:30:39;22.56;55.35
66312;HTU21D;53114;51.138;6.008;2023-09-19T11:33:28;22.41;55.69
66312;HTU21D;53114;51.138;6.008;2023-09-19T11:36:11;22.32;55.84
66312;HTU21D;53114;51.138;6.008;2023-09-19T11:46:32;22.43;55.30
66312;HTU21D;53114;51.138;6.008;2023-09-19T11:49:07;22.38;55.10
66312;HTU21D;53114;51.138;6.008;2023-09-19T11:51:43;22.23;54.42
66312;HTU21D;53114;51.138;6.008;2023-09-19T11:54:11;22.13;55.61
66312;HTU21D;53114;51.138;6.008;2023-09-19T11:56:51;22.12;56.41
66312;HTU21D;53114;51.138;6.008;2023-09-19T11:59:23;22.10;56.17
66312;HTU21D;53114;51.138;6.008;2023-09-19T12:01:52;21.97;56.40
66312;HTU21D;53114;51.138;6.008;2023-09-19T12:04:34;21.88;56.68
66312;HTU21D;53114;51.138;6.008;2023-09-19T12:07:08;21.83;56.77
66312;HTU21D;53114;51.138;6.008;2023-09-19T12:09:45;21.82;56.79
66312;HTU21D;53114;51.138;6.008;2023-09-19T12:12:26;21.92;56.02
66312;HTU21D;53114;51.138;6.008;2023-09-19T12:14:54;21.84;56.32
66312;HTU21D;53114;51.138;6.008;2023-09-19T12:17:20;21.80;56.84
66312;HTU21D;53114;51.138;6.008;2023-09-19T12:19:55;21.80;56.79
66312;HTU21D;53114;51.138;6.008;2023-09-19T12:22:21;21.88;57.03
66312;HTU21D;53114;51.138;6.008;2023-09-19T12:24:48;21.96;56.93
66312;HTU21D;53114;51.138;6.008;2023-09-19T12:27:15;22.03;56.70
66312;HTU21D;53114;51.138;6.008;2023-09-19T12:29:48;21.98;56.20
66312;HTU21D;53114;51.138;6.008;2023-09-19T12:32:15;22.04;56.29
66312;HTU21D;53114;51.138;6.008;2023-09-19T12:34:53;22.07;56.32
66312;HTU21D;53114;51.138;6.008;2023-09-19T12:37:20;22.09;55.49
66312;HTU21D;53114;51.138;6.008;2023-09-19T12:39:49;22.11;56.05
66312;HTU21D;53114;51.138;6.008;2023-09-19T12:42:22;22.19;56.39
66312;HTU21D;53114;51.138;6.008;2023-09-19T12:44:50;22.28;56.45
66312;HTU21D;53114;51.138;6.008;2023-09-19T12:47:23;22.34;56.92
66312;HTU21D;53114;51.138;6.008;2023-09-19T12:50:07;22.38;56.65
66312;HTU21D;53114;51.138;6.008;2023-09-19T13:00:40;22.32;56.16
66312;HTU21D;53114;51.138;6.008;2023-09-19T13:03:26;22.36;56.51
66312;HTU21D;53114;51.138;6.008;2023-09-19T13:05:59;22.32;56.03
66312;HTU21D;53114;51.138;6.008;2023-09-19T13:08:28;22.28;56.38
66312;HTU21D;53114;51.138;6.008;2023-09-19T13:11:05;22.14;56.29
66312;HTU21D;53114;51.138;6.008;2023-09-19T13:13:41;22.02;56.74
66312;HTU21D;53114;51.138;6.008;2023-09-19T13:16:10;21.88;57.35
66312;HTU21D;53114;51.138;6.008;2023-09-19T13:18:51;21.79;57.42
66312;HTU21D;53114;51.138;6.008;2023-09-19T13:21:36;21.70;57.55
66312;HTU21D;53114;51.138;6.008;2023-09-19T13:24:22;21.72;57.61
66312;HTU21D;53114;51.138;6.008;2023-09-19T13:26:51;21.66;57.80
66312;HTU21D;53114;51.138;6.008;2023-09-19T13:29:17;21.65;58.01
66312;HTU21D;53114;51.138;6.008;2023-09-19T13:31:51;21.62;57.95
66312;HTU21D;53114;51.138;6.008;2023-09-19T13:34:21;21.59;58.10
66312;HTU21D;53114;51.138;6.008;2023-09-19T13:36:47;21.55;57.99
66312;HTU21D;53114;51.138;6.008;2023-09-19T13:39:17;21.59;57.94
66312;HTU21D;53114;51.138;6.008;2023-09-19T13:41:49;21.60;58.04
66312;HTU21D;53114;51.138;6.008;2023-09-19T13:44:15;21.61;57.76
66312;HTU21D;53114;51.138;6.008;2023-09-19T13:46:42;21.58;57.68
66312;HTU21D;53114;51.138;6.008;2023-09-19T13:49:11;21.63;57.19
66312;HTU21D;53114;51.138;6.008;2023-09-19T13:51:37;21.65;57.63
66312;HTU21D;53114;51.138;6.008;2023-09-19T13:54:03;21.74;57.71
66312;HTU21D;53114;51.138;6.008;2023-09-19T13:56:29;21.79;57.66
66312;HTU21D;53114;51.138;6.008;2023-09-19T13:58:57;21.89;57.61
66312;HTU21D;53114;51.138;6.008;2023-09-19T14:01:23;21.87;57.34
66312;HTU21D;53114;51.138;6.008;2023-09-19T14:03:49;21.80;57.70
66312;HTU21D;53114;51.138;6.008;2023-09-19T14:06:17;21.76;57.80
66312;HTU21D;53114;51.138;6.008;2023-09-19T14:08:46;21.70;57.93
66312;HTU21D;53114;51.138;6.008;2023-09-19T14:11:13;21.60;58.10
66312;HTU21D;53114;51.138;6.008;2023-09-19T14:13:43;21.53;58.19
66312;HTU21D;53114;51.138;6.008;2023-09-19T14:16:15;21.50;58.25
66312;HTU21D;53114;51.138;6.008;2023-09-19T14:18:41;21.51;58.37
66312;HTU21D;53114;51.138;6.008;2023-09-19T14:21:07;21.46;58.70
66312;HTU21D;53114;51.138;6.008;2023-09-19T14:23:40;21.29;58.74
66312;HTU21D;53114;51.138;6.008;2023-09-19T14:26:08;21.24;58.27
66312;HTU21D;53114;51.138;6.008;2023-09-19T14:28:35;21.28;58.92
66312;HTU21D;53114;51.138;6.008;2023-09-19T14:31:11;21.29;58.71
66312;HTU21D;53114;51.138;6.008;2023-09-19T14:33:37;21.30;58.77
66312;HTU21D;53114;51.138;6.008;2023-09-19T14:36:05;21.31;58.78
66312;HTU21D;53114;51.138;6.008;2023-09-19T14:38:33;21.28;59.09
66312;HTU21D;53114;51.138;6.008;2023-09-19T14:41:04;21.27;59.32
66312;HTU21D;53114;51.138;6.008;2023-09-19T14:43:31;21.23;59.35
66312;HTU21D;53114;51.138;6.008;2023-09-19T14:46:05;21.23;59.44
66312;HTU21D;53114;51.138;6.008;2023-09-19T14:48:33;21.22;59.35
66312;HTU21D;53114;51.138;6.008;2023-09-19T14:51:03;21.25;59.39
66312;HTU21D;53114;51.138;6.008;2023-09-19T14:53:32;21.24;59.36
66312;HTU21D;53114;51.138;6.008;2023-09-19T14:56:02;21.24;59.24
66312;HTU21D;53114;51.138;6.008;2023-09-19T14:58:33;21.22;59.15
66312;HTU21D;53114;51.138;6.008;2023-09-19T15:01:10;21.20;59.29
66312;HTU21D;53114;51.138;6.008;2023-09-19T15:03:36;21.20;59.53
66312;HTU21D;53114;51.138;6.008;2023-09-19T15:06:04;21.09;59.57
66312;HTU21D;53114;51.138;6.008;2023-09-19T15:08:34;21.09;59.98
66312;HTU21D;53114;51.138;6.008;2023-09-19T15:11:01;21.13;60.10
66312;HTU21D;53114;51.138;6.008;2023-09-19T15:13:32;21.18;60.20
66312;HTU21D;53114;51.138;6.008;2023-09-19T15:15:59;21.19;59.88
66312;HTU21D;53114;51.138;6.008;2023-09-19T15:18:25;21.27;59.84
66312;HTU21D;53114;51.138;6.008;2023-09-19T15:20:52;21.42;59.82
66312;HTU21D;53114;51.138;6.008;2023-09-19T15:23:18;21.57;59.60
66312;HTU21D;53114;51.138;6.008;2023-09-19T15:25:49;21.64;59.41
66312;HTU21D;53114;51.138;6.008;2023-09-19T15:28:15;21.72;59.22
66312;HTU21D;53114;51.138;6.008;2023-09-19T15:30:41;21.83;59.44
66312;HTU21D;53114;51.138;6.008;2023-09-19T15:33:07;21.85;58.87
66312;HTU21D;53114;51.138;6.008;2023-09-19T15:35:33;21.76;59.07
66312;HTU21D;53114;51.138;6.008;2023-09-19T15:37:59;21.62;59.01
66312;HTU21D;53114;51.138;6.008;2023-09-19T15:40:26;21.57;59.49
66312;HTU21D;53114;51.138;6.008;2023-09-19T15:42:54;21.43;58.88
66312;HTU21D;53114;51.138;6.008;2023-09-19T15:45:23;21.42;59.56
66312;HTU21D;53114;51.138;6.008;2023-09-19T15:47:48;21.39;59.65
66312;HTU21D;53114;51.138;6.008;2023-09-19T15:50:15;21.49;59.74
66312;HTU21D;53114;51.138;6.008;2023-09-19T15:52:41;21.63;59.84
66312;HTU21D;53114;51.138;6.008;2023-09-19T15:55:08;21.66;59.36
66312;HTU21D;53114;51.138;6.008;2023-09-19T15:57:36;21.62;59.50
66312;HTU21D;53114;51.138;6.008;2023-09-19T16:00:03;21.47;58.54
66312;HTU21D;53114;51.138;6.008;2023-09-19T16:02:37;21.43;59.64
66312;HTU21D;53114;51.138;6.008;2023-09-19T16:05:03;21.38;59.52
66312;HTU21D;53114;51.138;6.008;2023-09-19T16:07:31;21.33;59.56